createdAt,value
2017-11-18T00:00:04.405Z,5.40
2017-11-18T00:02:30.596Z,5.40
2017-11-18T00:04:57.613Z,5.40
2017-11-18T00:07:24.559Z,5.50
2017-11-18T00:09:51.551Z,5.50
2017-11-18T00:12:17.765Z,5.50
2017-11-18T00:14:44.684Z,5.50
2017-11-18T00:17:11.586Z,5.50
2017-11-18T00:19:37.848Z,5.40
2017-11-18T00:22:04.061Z,5.40
2017-11-18T00:24:30.348Z,5.40
2017-11-18T00:26:56.568Z,5.40
2017-11-18T00:29:23.524Z,5.40
2017-11-18T00:31:49.753Z,5.40
2017-11-18T00:34:15.946Z,5.40
2017-11-18T00:36:42.212Z,5.50
2017-11-18T00:39:08.429Z,5.40
2017-11-18T00:41:35.382Z,5.50
2017-11-18T00:44:01.617Z,5.50
2017-11-18T00:46:27.808Z,5.60
2017-11-18T00:48:54.056Z,5.60
2017-11-18T00:51:20.289Z,5.70
2017-11-18T00:53:47.224Z,5.70
2017-11-18T00:56:14.227Z,5.80
2017-11-18T00:58:40.498Z,5.70
2017-11-18T01:01:07.461Z,5.60
2017-11-18T01:03:33.689Z,5.60
2017-11-18T01:05:59.914Z,5.60
2017-11-18T01:08:26.188Z,5.60
2017-11-18T01:10:52.429Z,5.60
2017-11-18T01:13:18.619Z,5.60
2017-11-18T01:15:44.789Z,5.70
2017-11-18T01:18:11.013Z,5.70
2017-11-18T01:20:37.280Z,5.70
2017-11-18T01:23:04.178Z,5.60
2017-11-18T01:25:30.356Z,5.60
2017-11-18T01:27:57.309Z,5.60
2017-11-18T01:30:23.529Z,5.60
2017-11-18T01:32:50.498Z,5.50
2017-11-18T01:35:16.724Z,5.50
2017-11-18T01:37:42.950Z,5.60
2017-11-18T01:40:09.273Z,5.50
2017-11-18T01:42:35.434Z,5.50
2017-11-18T01:45:01.690Z,5.60
2017-11-18T01:47:28.680Z,5.60
2017-11-18T01:49:54.865Z,5.60
2017-11-18T01:52:21.085Z,5.60
2017-11-18T01:54:48.048Z,5.50
2017-11-18T01:57:15.105Z,5.60
2017-11-18T01:59:42.049Z,5.60
2017-11-18T02:02:09.068Z,5.60
2017-11-18T02:04:36.024Z,5.60
2017-11-18T02:07:02.967Z,5.50
2017-11-18T02:09:29.208Z,5.50
2017-11-18T02:11:56.159Z,5.50
2017-11-18T02:14:23.144Z,5.40
2017-11-18T02:16:49.418Z,5.40
2017-11-18T02:19:16.400Z,5.50
2017-11-18T02:21:42.719Z,5.50
2017-11-18T02:24:09.053Z,5.60
2017-11-18T02:26:35.356Z,5.60
2017-11-18T02:29:02.329Z,5.60
2017-11-18T02:31:29.347Z,5.60
2017-11-18T02:33:56.371Z,5.70
2017-11-18T02:36:22.637Z,5.70
2017-11-18T02:38:49.612Z,5.70
2017-11-18T02:41:15.921Z,5.70
2017-11-18T02:43:42.897Z,5.80
2017-11-18T02:46:09.208Z,5.70
2017-11-18T02:48:35.397Z,5.80
2017-11-18T02:51:01.612Z,5.80
2017-11-18T02:53:27.845Z,5.90
2017-11-18T02:55:54.083Z,5.80
2017-11-18T02:58:21.095Z,5.80
2017-11-18T03:00:47.318Z,5.80
2017-11-18T03:03:13.576Z,5.70
2017-11-18T03:05:39.815Z,5.60
2017-11-18T03:08:06.082Z,5.60
2017-11-18T03:10:32.297Z,5.60
2017-11-18T03:12:59.239Z,5.60
2017-11-18T03:15:26.185Z,5.60
2017-11-18T03:17:53.140Z,5.60
2017-11-18T03:20:19.442Z,5.60
2017-11-18T03:22:45.744Z,5.60
2017-11-18T03:25:11.992Z,5.60
2017-11-18T03:27:38.985Z,5.60
2017-11-18T03:30:05.269Z,5.60
2017-11-18T03:32:32.255Z,5.70
2017-11-18T03:34:58.440Z,5.70
2017-11-18T03:37:24.650Z,5.70
2017-11-18T03:39:50.880Z,5.70
2017-11-18T03:42:17.200Z,5.80
2017-11-18T03:44:43.425Z,5.80
2017-11-18T03:47:09.658Z,5.90
2017-11-18T03:49:35.961Z,6.00
2017-11-18T03:52:02.251Z,6.00
2017-11-18T03:54:28.509Z,6.00
2017-11-18T03:56:55.510Z,6.10
2017-11-18T03:59:21.813Z,6.10
2017-11-18T04:01:48.091Z,6.00
2017-11-18T04:04:15.034Z,6.10
2017-11-18T04:06:42.013Z,6.10
2017-11-18T04:09:08.277Z,6.10
2017-11-18T04:11:34.523Z,6.10
2017-11-18T04:14:01.530Z,6.20
2017-11-18T04:16:27.824Z,6.10
2017-11-18T04:18:54.786Z,6.10
2017-11-18T04:21:21.059Z,6.10
2017-11-18T04:23:47.315Z,6.20
2017-11-18T04:26:13.556Z,6.20
2017-11-18T04:28:40.541Z,6.10
2017-11-18T04:31:06.789Z,6.10
2017-11-18T04:33:33.000Z,6.00
2017-11-18T04:35:59.296Z,6.00
2017-11-18T04:38:26.281Z,6.00
2017-11-18T04:40:52.536Z,6.00
2017-11-18T04:43:18.730Z,6.00
2017-11-18T04:45:45.008Z,6.10
2017-11-18T04:48:11.948Z,6.10
2017-11-18T04:50:38.203Z,6.20
2017-11-18T04:53:05.197Z,6.00
2017-11-18T04:55:31.456Z,6.00
2017-11-18T04:57:57.684Z,6.00
2017-11-18T05:00:24.675Z,6.10
2017-11-18T05:02:50.876Z,6.10
2017-11-18T05:05:17.844Z,6.10
2017-11-18T05:07:44.091Z,6.10
2017-11-18T05:10:10.365Z,6.10
2017-11-18T05:12:36.568Z,6.10
2017-11-18T05:15:02.794Z,6.10
2017-11-18T05:17:29.087Z,6.10
2017-11-18T05:19:55.385Z,6.10
2017-11-18T05:22:21.627Z,6.10
2017-11-18T05:24:48.556Z,6.10
2017-11-18T05:27:14.851Z,6.10
2017-11-18T05:29:41.109Z,6.10
2017-11-18T05:32:07.269Z,6.00
2017-11-18T05:34:34.224Z,6.10
2017-11-18T05:37:00.505Z,6.10
2017-11-18T05:39:27.472Z,6.10
2017-11-18T05:41:54.460Z,6.20
2017-11-18T05:44:20.680Z,6.10
2017-11-18T05:46:46.862Z,6.10
2017-11-18T05:49:13.109Z,6.10
2017-11-18T05:51:40.103Z,6.10
2017-11-18T05:54:06.325Z,6.10
2017-11-18T05:56:32.592Z,6.10
2017-11-18T05:58:59.569Z,6.00
2017-11-18T06:01:25.881Z,6.00
2017-11-18T06:03:52.895Z,6.00
2017-11-18T06:06:19.086Z,6.00
2017-11-18T06:08:46.218Z,5.90
2017-11-18T06:11:12.505Z,5.80
2017-11-18T06:13:38.792Z,5.90
2017-11-18T06:16:05.072Z,5.80
2017-11-18T06:18:32.090Z,5.70
2017-11-18T06:20:58.654Z,5.70
2017-11-18T06:23:25.636Z,5.70
2017-11-18T06:25:52.624Z,5.70
2017-11-18T06:28:18.908Z,5.70
2017-11-18T06:30:45.930Z,5.70
2017-11-18T06:33:12.877Z,5.80
2017-11-18T06:35:39.794Z,5.90
2017-11-18T06:38:06.027Z,5.90
2017-11-18T06:40:32.251Z,6.00
2017-11-18T06:42:58.464Z,6.00
2017-11-18T06:45:24.663Z,6.00
2017-11-18T06:47:51.636Z,6.00
2017-11-18T06:50:17.888Z,6.00
2017-11-18T06:52:44.114Z,6.00
2017-11-18T06:55:10.343Z,6.00
2017-11-18T06:57:36.582Z,5.90
2017-11-18T07:00:02.781Z,5.90
2017-11-18T07:02:29.017Z,5.90
2017-11-18T07:04:55.210Z,5.90
2017-11-18T07:07:22.137Z,5.90
2017-11-18T07:09:49.089Z,5.90
2017-11-18T07:12:16.026Z,5.80
2017-11-18T07:14:42.938Z,5.80
2017-11-18T07:17:09.157Z,5.80
2017-11-18T07:19:35.332Z,5.90
2017-11-18T07:22:02.273Z,5.80
2017-11-18T07:24:29.244Z,5.80
2017-11-18T07:26:55.481Z,5.80
2017-11-18T07:29:21.678Z,5.80
2017-11-18T07:31:48.605Z,5.90
2017-11-18T07:34:15.516Z,5.90
2017-11-18T07:36:41.735Z,5.90
2017-11-18T07:39:07.881Z,6.10
2017-11-18T07:41:34.086Z,6.20
2017-11-18T07:44:00.346Z,6.30
2017-11-18T07:46:26.628Z,6.20
2017-11-18T07:48:52.881Z,6.10
2017-11-18T07:51:19.189Z,6.00
2017-11-18T07:53:45.348Z,6.00
2017-11-18T07:56:11.586Z,6.10
2017-11-18T07:58:37.784Z,6.10
2017-11-18T08:01:03.998Z,6.10
2017-11-18T08:03:30.163Z,6.20
2017-11-18T08:05:56.387Z,6.20
2017-11-18T08:08:22.577Z,6.20
2017-11-18T08:10:48.797Z,6.30
2017-11-18T08:13:15.777Z,6.40
2017-11-18T08:15:42.021Z,6.40
2017-11-18T08:18:08.206Z,6.40
2017-11-18T08:20:35.230Z,6.80
2017-11-18T08:23:02.267Z,7.00
2017-11-18T08:25:28.444Z,6.90
2017-11-18T08:27:54.676Z,6.90
2017-11-18T08:30:20.842Z,7.00
2017-11-18T08:32:47.029Z,7.00
2017-11-18T08:35:13.219Z,7.00
2017-11-18T08:37:40.208Z,7.20
2017-11-18T08:40:06.499Z,7.10
2017-11-18T08:42:33.432Z,7.40
2017-11-18T08:44:59.648Z,7.40
2017-11-18T08:47:25.853Z,7.40
2017-11-18T08:49:52.082Z,7.30
2017-11-18T08:52:18.326Z,7.50
2017-11-18T08:54:44.557Z,7.50
2017-11-18T08:57:10.810Z,7.60
2017-11-18T08:59:37.777Z,7.50
2017-11-18T09:02:04.070Z,7.40
2017-11-18T09:04:30.326Z,7.50
2017-11-18T09:06:57.289Z,7.30
2017-11-18T09:09:23.472Z,7.30
2017-11-18T09:11:50.492Z,7.20
2017-11-18T09:14:16.754Z,7.20
2017-11-18T09:16:43.000Z,7.30
2017-11-18T09:19:11.860Z,7.20
2017-11-18T09:21:38.869Z,7.20
2017-11-18T09:24:05.077Z,7.20
2017-11-18T09:26:32.370Z,6.80
2017-11-18T09:28:58.641Z,6.80
2017-11-18T09:31:25.618Z,6.90
2017-11-18T09:33:51.854Z,6.90
2017-11-18T09:36:18.141Z,6.90
2017-11-18T09:38:45.071Z,6.80
2017-11-18T09:41:11.311Z,6.80
2017-11-18T09:43:38.234Z,6.90
2017-11-18T09:46:04.409Z,6.90
2017-11-18T09:48:31.371Z,6.90
2017-11-18T09:50:57.636Z,6.90
2017-11-18T09:59:27.449Z,8.10
2017-11-18T10:01:53.643Z,7.90
2017-11-18T10:04:19.878Z,8.00
2017-11-18T10:06:46.852Z,7.90
2017-11-18T10:09:13.039Z,7.90
2017-11-18T10:11:39.203Z,7.90
2017-11-18T10:14:06.145Z,7.70
2017-11-18T10:16:32.315Z,7.70
2017-11-18T10:18:58.509Z,7.50
2017-11-18T10:21:24.691Z,7.40
2017-11-18T10:23:50.873Z,7.30
2017-11-18T10:26:17.077Z,7.20
2017-11-18T10:28:44.039Z,7.20
2017-11-18T10:31:10.238Z,7.20
2017-11-18T10:33:37.224Z,7.20
2017-11-18T10:36:03.465Z,7.10
2017-11-18T10:38:29.714Z,7.30
2017-11-18T10:40:55.892Z,7.80
2017-11-18T10:43:22.058Z,7.90
2017-11-18T10:45:48.319Z,7.90
2017-11-18T10:48:15.275Z,7.80
2017-11-18T10:50:42.254Z,7.60
2017-11-18T10:53:08.461Z,7.60
2017-11-18T10:55:34.752Z,7.60
2017-11-18T10:58:00.947Z,7.50
2017-11-18T11:00:27.119Z,7.40
2017-11-18T11:02:53.296Z,7.40
2017-11-18T11:05:19.479Z,7.40
2017-11-18T11:07:45.643Z,7.40
2017-11-18T11:10:11.840Z,7.20
2017-11-18T11:12:38.806Z,7.40
2017-11-18T11:15:05.037Z,7.40
2017-11-18T11:17:31.286Z,7.30
2017-11-18T11:19:57.477Z,7.10
2017-11-18T11:22:24.401Z,7.20
2017-11-18T11:24:50.579Z,7.20
2017-11-18T11:27:16.755Z,7.10
2017-11-18T11:29:42.959Z,7.00
2017-11-18T11:32:09.137Z,7.00
2017-11-18T11:34:36.073Z,7.00
2017-11-18T11:37:03.024Z,6.90
2017-11-18T11:39:30.007Z,7.00
2017-11-18T11:41:56.218Z,6.90
2017-11-18T11:44:22.498Z,7.00
2017-11-18T11:46:48.707Z,6.90
2017-11-18T11:49:14.985Z,7.10
2017-11-18T11:51:41.234Z,7.20
2017-11-18T11:54:22.322Z,7.10
2017-11-18T11:56:48.537Z,7.10
2017-11-18T11:59:14.711Z,7.10
2017-11-18T12:01:40.944Z,6.90
2017-11-18T12:04:07.127Z,7.30
2017-11-18T12:06:33.345Z,7.30
2017-11-18T12:08:59.556Z,7.20
2017-11-18T12:11:26.483Z,7.30
2017-11-18T12:13:53.422Z,7.20
2017-11-18T12:16:20.395Z,7.20
2017-11-18T12:18:46.657Z,7.10
2017-11-18T12:21:12.904Z,7.10
2017-11-18T12:23:39.143Z,7.10
2017-11-18T12:26:05.465Z,7.20
2017-11-18T12:28:31.689Z,7.30
2017-11-18T12:30:57.894Z,7.40
2017-11-18T12:33:24.035Z,7.40
2017-11-18T12:35:50.266Z,7.20
2017-11-18T12:38:16.490Z,7.30
2017-11-18T12:40:42.708Z,7.20
2017-11-18T12:43:08.950Z,7.20
2017-11-18T12:45:35.180Z,7.20
2017-11-18T12:48:01.383Z,7.10
2017-11-18T12:50:27.630Z,7.10
2017-11-18T12:52:53.874Z,7.20
2017-11-18T12:55:20.051Z,7.30
2017-11-18T12:57:46.986Z,7.30
2017-11-18T13:00:13.922Z,7.20
2017-11-18T13:02:40.925Z,7.30
2017-11-18T13:05:07.146Z,7.20
2017-11-18T13:07:33.286Z,7.20
2017-11-18T13:09:59.462Z,7.30
2017-11-18T13:12:26.391Z,7.30
2017-11-18T13:14:53.302Z,7.30
2017-11-18T13:17:19.434Z,7.30
2017-11-18T13:19:45.622Z,7.20
2017-11-18T13:22:11.799Z,7.10
2017-11-18T13:24:38.674Z,7.10
2017-11-18T13:27:05.629Z,7.20
2017-11-18T13:29:31.794Z,7.20
2017-11-18T13:31:57.984Z,7.20
2017-11-18T13:34:24.154Z,7.20
2017-11-18T13:36:50.390Z,7.10
2017-11-18T13:39:16.618Z,7.20
2017-11-18T13:41:43.557Z,7.10
2017-11-18T13:44:09.750Z,7.10
2017-11-18T13:46:36.050Z,7.20
2017-11-18T13:49:02.950Z,7.20
2017-11-18T13:51:29.145Z,7.20
2017-11-18T13:53:55.376Z,7.10
2017-11-18T13:56:21.610Z,6.90
2017-11-18T13:58:47.826Z,6.90
2017-11-18T14:01:14.782Z,7.00
2017-11-18T14:03:41.058Z,7.00
2017-11-18T14:06:07.227Z,7.10
2017-11-18T14:08:34.173Z,7.20
2017-11-18T14:11:00.370Z,7.10
2017-11-18T14:13:26.558Z,7.20
2017-11-18T14:15:52.824Z,7.30
2017-11-18T14:18:19.818Z,7.30
2017-11-18T14:20:46.020Z,7.30
2017-11-18T14:23:13.026Z,7.30
2017-11-18T14:25:39.235Z,7.30
2017-11-18T14:28:05.454Z,7.30
2017-11-18T14:30:31.628Z,7.30
2017-11-18T14:32:58.618Z,7.30
2017-11-18T14:35:24.849Z,7.30
2017-11-18T14:37:51.085Z,7.30
2017-11-18T14:40:17.373Z,7.30
2017-11-18T14:42:44.350Z,7.30
2017-11-18T14:45:10.561Z,7.40
2017-11-18T14:47:36.787Z,7.30
2017-11-18T14:50:03.731Z,7.30
2017-11-18T14:52:30.831Z,7.30
2017-11-18T14:54:57.145Z,7.30
2017-11-18T14:57:23.426Z,7.30
2017-11-18T14:59:50.401Z,7.20
2017-11-18T15:02:16.653Z,7.20
2017-11-18T15:04:42.888Z,7.20
2017-11-18T15:07:09.099Z,7.20
2017-11-18T15:09:35.357Z,7.10
2017-11-18T15:12:01.716Z,7.10
2017-11-18T15:14:37.659Z,7.20
2017-11-18T15:17:10.026Z,7.10
2017-11-18T15:19:42.319Z,7.10
2017-11-18T15:22:21.407Z,7.20
2017-11-18T15:24:53.782Z,7.20
2017-11-18T15:27:26.170Z,7.20
2017-11-18T15:29:59.203Z,7.20
2017-11-18T15:32:26.231Z,7.20
2017-11-18T15:34:59.395Z,7.20
2017-11-18T15:37:32.700Z,7.20
2017-11-18T15:39:58.953Z,7.10
2017-11-18T15:42:25.297Z,7.10
2017-11-18T15:48:02.737Z,7.10
2017-11-18T15:50:35.081Z,7.10
2017-11-18T15:53:16.183Z,7.10
2017-11-18T15:55:58.094Z,7.10
2017-11-18T15:58:24.292Z,7.10
2017-11-18T16:00:56.556Z,7.10
2017-11-18T16:03:23.724Z,7.00
2017-11-18T16:05:50.010Z,6.90
2017-11-18T16:08:18.982Z,6.90
2017-11-18T16:10:45.178Z,6.90
2017-11-18T16:13:11.345Z,6.90
2017-11-18T16:15:37.613Z,6.90
2017-11-18T16:18:03.816Z,6.90
2017-11-18T16:20:30.782Z,6.80
2017-11-18T16:22:57.769Z,6.70
2017-11-18T16:25:23.968Z,6.70
2017-11-18T16:27:50.206Z,6.80
2017-11-18T16:30:16.454Z,6.70
2017-11-18T16:32:42.642Z,6.80
2017-11-18T16:35:09.565Z,6.70
2017-11-18T16:37:36.735Z,6.70
2017-11-18T16:40:03.754Z,6.60
2017-11-18T16:42:29.939Z,6.70
2017-11-18T16:44:56.119Z,6.70
2017-11-18T16:47:22.373Z,6.60
2017-11-18T16:49:48.575Z,6.60
2017-11-18T16:52:14.744Z,6.60
2017-11-18T16:54:40.999Z,6.50
2017-11-18T16:57:07.190Z,6.60
2017-11-18T16:59:33.418Z,6.50
2017-11-18T17:01:59.603Z,6.40
2017-11-18T17:04:25.841Z,6.40
2017-11-18T17:06:52.067Z,6.40
2017-11-18T17:09:18.347Z,6.40
2017-11-18T17:11:44.626Z,6.70
2017-11-18T17:14:11.571Z,6.50
2017-11-18T17:16:38.511Z,6.40
2017-11-18T17:19:05.510Z,6.50
2017-11-18T17:21:31.733Z,6.50
2017-11-18T17:23:57.934Z,6.60
2017-11-18T17:26:24.879Z,6.50
2017-11-18T17:28:51.848Z,6.50
2017-11-18T17:31:18.062Z,6.50
2017-11-18T17:33:45.090Z,6.50
2017-11-18T17:36:12.062Z,6.40
2017-11-18T17:38:38.283Z,6.40
2017-11-18T17:41:05.179Z,6.40
2017-11-18T17:43:31.430Z,6.40
2017-11-18T17:45:57.559Z,6.40
2017-11-18T17:48:24.458Z,6.40
2017-11-18T17:50:50.668Z,6.40
2017-11-18T17:53:16.877Z,6.30
2017-11-18T17:55:43.864Z,6.20
2017-11-18T17:58:10.153Z,6.20
2017-11-18T18:00:36.351Z,5.90
2017-11-18T18:03:03.373Z,5.70
2017-11-18T18:05:29.579Z,5.70
2017-11-18T18:07:55.813Z,5.70
2017-11-18T18:10:22.039Z,5.80
2017-11-18T18:12:48.235Z,5.80
2017-11-18T18:15:15.236Z,5.80
2017-11-18T18:17:41.435Z,5.80
2017-11-18T18:20:07.655Z,5.80
2017-11-18T18:22:33.846Z,5.70
2017-11-18T18:25:00.828Z,5.80
2017-11-18T18:27:27.027Z,5.70
2017-11-18T18:29:53.966Z,5.70
2017-11-18T18:32:21.037Z,5.70
2017-11-18T18:34:47.259Z,5.70
2017-11-18T18:37:14.249Z,5.70
2017-11-18T18:39:40.489Z,5.70
2017-11-18T18:42:06.661Z,5.80
2017-11-18T18:44:33.616Z,5.70
2017-11-18T18:46:59.879Z,5.80
2017-11-18T18:49:26.071Z,5.80
2017-11-18T18:51:52.246Z,5.70
2017-11-18T18:54:18.463Z,5.70
2017-11-18T18:56:44.660Z,5.70
2017-11-18T18:59:10.826Z,5.60
2017-11-18T19:01:37.037Z,5.60
2017-11-18T19:04:03.286Z,5.80
2017-11-18T19:06:29.522Z,5.60
2017-11-18T19:08:56.470Z,5.80
2017-11-18T19:11:22.706Z,5.80
2017-11-18T19:13:48.920Z,5.80
2017-11-18T19:16:33.184Z,5.90
2017-11-18T19:18:59.325Z,5.80
2017-11-18T19:21:25.565Z,5.80
2017-11-18T19:23:52.563Z,5.50
2017-11-18T19:26:23.471Z,5.50
2017-11-18T19:28:50.967Z,5.60
2017-11-18T19:31:22.204Z,5.60
2017-11-18T19:33:53.133Z,5.60
2017-11-18T19:36:24.006Z,5.70
2017-11-18T19:38:55.146Z,5.70
2017-11-18T19:41:27.695Z,5.50
2017-11-18T19:44:02.368Z,5.50
2017-11-18T19:46:34.763Z,5.60
2017-11-18T19:49:29.116Z,5.40
2017-11-18T19:52:07.983Z,5.40
2017-11-18T19:54:38.697Z,5.50
2017-11-18T19:57:09.723Z,5.70
2017-11-18T19:59:41.496Z,5.80
2017-11-18T20:02:10.087Z,5.80
2017-11-18T20:04:40.571Z,5.70
2017-11-18T20:07:09.628Z,5.80
2017-11-18T20:09:42.514Z,5.80
2017-11-18T20:12:09.153Z,6.10
2017-11-18T20:14:41.266Z,6.00
2017-11-18T20:17:13.024Z,5.90
2017-11-18T20:19:44.648Z,5.80
2017-11-18T20:22:11.586Z,5.70
2017-11-18T20:24:41.516Z,5.60
2017-11-18T20:29:45.105Z,5.50
2017-11-18T20:32:14.648Z,5.60
2017-11-18T20:34:43.509Z,5.60
2017-11-18T20:37:14.610Z,5.60
2017-11-18T20:39:42.739Z,5.60
2017-11-18T20:42:11.193Z,5.60
2017-11-18T20:44:42.209Z,5.60
2017-11-18T20:47:10.802Z,5.70
2017-11-18T20:49:41.845Z,5.70
2017-11-18T20:52:08.395Z,5.70
2017-11-18T20:54:36.230Z,5.70
2017-11-18T20:57:08.933Z,5.50
2017-11-18T20:59:46.160Z,5.50
2017-11-18T21:02:16.316Z,5.50
2017-11-18T21:04:47.220Z,5.60
2017-11-18T21:07:17.765Z,5.40
2017-11-18T21:09:47.843Z,5.50
2017-11-18T21:12:17.554Z,5.50
2017-11-18T21:14:52.480Z,5.50
2017-11-18T21:17:24.746Z,5.40
2017-11-18T21:19:57.029Z,5.40
2017-11-18T21:22:30.227Z,5.30
2017-11-18T21:25:00.135Z,5.30
2017-11-18T21:27:29.126Z,5.30
2017-11-18T21:30:03.243Z,5.30
2017-11-18T21:32:36.387Z,5.40
2017-11-18T21:35:06.841Z,5.40
2017-11-18T21:37:47.017Z,5.30
2017-11-18T21:40:18.035Z,5.20
2017-11-18T21:42:48.892Z,5.20
2017-11-18T21:45:18.353Z,5.30
2017-11-18T21:47:46.959Z,5.30
2017-11-18T21:50:14.823Z,5.30
2017-11-18T21:52:42.648Z,5.40
2017-11-18T21:55:11.447Z,5.40
2017-11-18T21:57:41.209Z,5.50
2017-11-18T22:00:12.353Z,5.40
2017-11-18T22:02:43.869Z,5.30
2017-11-18T22:05:13.383Z,5.20
2017-11-18T22:07:42.823Z,5.30
2017-11-18T22:10:17.546Z,5.40
2017-11-18T22:12:46.266Z,5.40
2017-11-18T22:15:21.492Z,5.20
2017-11-18T22:20:29.355Z,5.20
2017-11-18T22:22:58.673Z,5.20
2017-11-18T22:25:33.538Z,5.30
2017-11-18T22:28:02.502Z,5.30
2017-11-18T22:30:32.452Z,5.30
2017-11-18T22:33:05.065Z,5.20
2017-11-18T22:35:32.627Z,5.30
2017-11-18T22:38:06.021Z,5.20
2017-11-18T22:40:37.209Z,5.10
2017-11-18T22:43:07.465Z,5.20
2017-11-18T22:45:37.867Z,5.20
2017-11-18T22:48:06.104Z,5.20
2017-11-18T22:50:34.161Z,5.30
2017-11-18T22:53:01.109Z,5.30
2017-11-18T22:55:27.275Z,5.30
2017-11-18T22:57:53.409Z,5.30
2017-11-18T23:00:38.462Z,5.20
2017-11-18T23:03:04.657Z,5.10
2017-11-18T23:05:30.894Z,5.30
2017-11-18T23:07:57.804Z,5.40
2017-11-18T23:10:23.982Z,5.40
2017-11-18T23:12:50.165Z,5.40
2017-11-18T23:15:16.330Z,5.40
2017-11-18T23:17:43.282Z,5.50
2017-11-18T23:20:09.478Z,5.50
2017-11-18T23:22:35.686Z,5.60
2017-11-18T23:25:01.882Z,5.50
2017-11-18T23:27:28.101Z,5.40
2017-11-18T23:29:54.311Z,5.50
2017-11-18T23:32:21.264Z,5.50
2017-11-18T23:34:47.496Z,5.50
2017-11-18T23:37:13.709Z,5.60
2017-11-18T23:39:40.673Z,5.60
2017-11-18T23:42:06.865Z,5.60
2017-11-18T23:44:33.760Z,5.60
2017-11-18T23:49:53.136Z,5.40
2017-11-18T23:52:19.311Z,5.50
2017-11-18T23:54:45.563Z,5.60
2017-11-18T23:57:11.754Z,5.60
2017-11-18T23:59:38.733Z,5.60
